KCBM/CBM METAR and TAF weather

Enter ICAO airport designator
Station Type Date Time Source
KCBM METAR 2023/01/30 11:00 UTC NOAA

KCBM 301100Z AUTO 32010KT 3/4SM BR VV002 11/11 A3010 RMK AO2 CIG 001 RWY13C SLP195 RVRNO TSNO $


Station Type Date Time Source
KCBM Decoded METAR 2023/01/30 11:00 UTC NOAA

Columbus Air Force Base, MS, United States (KCBM) 33-39N 088-27W
Jan 30, 2023 - 06:00 AM EST / 2023.01.30 1100 UTC
Wind: from the NW (320 degrees) at 12 MPH (10 KT):0
Visibility: 3/4 mile(s):0
Sky conditions: obscured
Weather: mist
Temperature: 51 F (11 C)
Dew Point: 51 F (11 C)
Relative Humidity: 100%
Pressure (altimeter): 30.1 in. Hg (1019 hPa)
ob: KCBM 301100Z AUTO 32010KT 3/4SM BR VV002 11/11 A3010 RMK AO2 CIG 001 RWY13C SLP195 RVRNO TSNO
cycle: 11

Station Type Date Time Source
KCBM TAF 2023/01/30 10:59 UTC NOAA

TAF KCBM 301000Z 3010/3116 35006KT 2800 BR OVC002 540006 QNH3003INS
TEMPO 3011/3014 3200 BR
BECMG 3013/3014 03006KT 9999 NSW OVC005 510006 QNH3009INS
BECMG 3020/3021 35006KT 9999 OVC005 510006 QNH3009INS
BECMG 3022/3023 35006KT 9000 -SHRA OVC002 510006 QNH3009INS
BECMG 3102/3103 35006KT 9999 NSW OVC005 QNH3010INS
BECMG 3106/3107 35009KT 8000 -SHRA OVC002 QNH3010INS TX15/3019Z TN08/3109Z

Example: see airport list